sensor_id;sensor_type;location;lat;lon;timestamp;pressure;altitude;pressure_sealevel;temperature;humidity
29247;BME280;16272;48.188;9.964;2023-07-13T00:01:04;95762.66;;;19.01;89.36
29247;BME280;16272;48.188;9.964;2023-07-13T00:03:29;95771.97;;;19.18;88.27
29247;BME280;16272;48.188;9.964;2023-07-13T00:06:00;95779.63;;;18.95;89.23
29247;BME280;16272;48.188;9.964;2023-07-13T00:08:26;95784.41;;;18.99;88.36
29247;BME280;16272;48.188;9.964;2023-07-13T00:10:52;95781.50;;;18.94;87.78
29247;BME280;16272;48.188;9.964;2023-07-13T00:13:19;95783.97;;;18.89;88.38
29247;BME280;16272;48.188;9.964;2023-07-13T00:15:45;95776.47;;;18.71;89.12
29247;BME280;16272;48.188;9.964;2023-07-13T00:18:10;95791.81;;;18.84;88.77
29247;BME280;16272;48.188;9.964;2023-07-13T00:20:35;95787.81;;;18.66;89.12
29247;BME280;16272;48.188;9.964;2023-07-13T00:23:00;95790.13;;;18.76;88.78
29247;BME280;16272;48.188;9.964;2023-07-13T00:25:26;95795.16;;;18.86;88.60
29247;BME280;16272;48.188;9.964;2023-07-13T00:27:53;95796.16;;;18.85;88.79
29247;BME280;16272;48.188;9.964;2023-07-13T00:30:19;95799.50;;;18.94;88.19
29247;BME280;16272;48.188;9.964;2023-07-13T00:32:45;95793.50;;;18.91;87.99
29247;BME280;16272;48.188;9.964;2023-07-13T00:35:12;95791.00;;;18.83;88.58
29247;BME280;16272;48.188;9.964;2023-07-13T00:37:38;95799.56;;;18.52;89.12
29247;BME280;16272;48.188;9.964;2023-07-13T00:40:04;95805.41;;;18.69;89.98
29247;BME280;16272;48.188;9.964;2023-07-13T00:42:30;95797.13;;;18.64;90.02
29247;BME280;16272;48.188;9.964;2023-07-13T00:47:37;95804.97;;;18.65;90.43
29247;BME280;16272;48.188;9.964;2023-07-13T00:50:04;95799.63;;;18.72;89.50
29247;BME280;16272;48.188;9.964;2023-07-13T00:52:30;95803.34;;;18.71;88.63
29247;BME280;16272;48.188;9.964;2023-07-13T00:54:56;95794.25;;;18.72;89.27
29247;BME280;16272;48.188;9.964;2023-07-13T00:57:22;95788.03;;;18.71;88.70
29247;BME280;16272;48.188;9.964;2023-07-13T00:59:58;95784.75;;;18.76;87.06
29247;BME280;16272;48.188;9.964;2023-07-13T01:02:24;95782.22;;;18.61;87.28
29247;BME280;16272;48.188;9.964;2023-07-13T01:04:50;95784.28;;;18.66;88.70
29247;BME280;16272;48.188;9.964;2023-07-13T01:07:16;95791.69;;;18.50;88.85
29247;BME280;16272;48.188;9.964;2023-07-13T01:09:42;95795.19;;;18.44;88.20
29247;BME280;16272;48.188;9.964;2023-07-13T01:12:10;95800.50;;;18.31;88.84
29247;BME280;16272;48.188;9.964;2023-07-13T01:14:36;95793.47;;;18.30;88.12
29247;BME280;16272;48.188;9.964;2023-07-13T01:17:01;95798.19;;;18.21;87.89
29247;BME280;16272;48.188;9.964;2023-07-13T01:19:44;95812.59;;;18.13;86.88
29247;BME280;16272;48.188;9.964;2023-07-13T01:22:18;95807.31;;;18.27;86.15
29247;BME280;16272;48.188;9.964;2023-07-13T01:24:46;95815.31;;;18.13;87.80
29247;BME280;16272;48.188;9.964;2023-07-13T01:27:15;95814.50;;;17.85;87.84
29247;BME280;16272;48.188;9.964;2023-07-13T01:29:42;95808.75;;;17.88;87.48
29247;BME280;16272;48.188;9.964;2023-07-13T01:32:10;95807.72;;;17.89;86.57
29247;BME280;16272;48.188;9.964;2023-07-13T01:34:35;95816.25;;;17.92;86.91
29247;BME280;16272;48.188;9.964;2023-07-13T01:37:02;95816.25;;;17.92;86.58
29247;BME280;16272;48.188;9.964;2023-07-13T01:39:28;95809.75;;;17.87;88.21
29247;BME280;16272;48.188;9.964;2023-07-13T01:41:53;95808.38;;;17.69;87.99
29247;BME280;16272;48.188;9.964;2023-07-13T01:44:18;95797.63;;;17.91;87.36
29247;BME280;16272;48.188;9.964;2023-07-13T01:46:43;95804.63;;;17.92;86.73
29247;BME280;16272;48.188;9.964;2023-07-13T01:49:09;95803.03;;;17.97;86.71
29247;BME280;16272;48.188;9.964;2023-07-13T01:51:34;95808.38;;;17.91;86.76
29247;BME280;16272;48.188;9.964;2023-07-13T01:53:59;95808.38;;;17.91;86.92
29247;BME280;16272;48.188;9.964;2023-07-13T01:56:25;95805.66;;;17.62;90.17
29247;BME280;16272;48.188;9.964;2023-07-13T01:58:51;95816.66;;;17.96;87.04
29247;BME280;16272;48.188;9.964;2023-07-13T02:01:17;95805.81;;;17.82;88.81
29247;BME280;16272;48.188;9.964;2023-07-13T02:03:42;95810.34;;;18.10;87.09
29247;BME280;16272;48.188;9.964;2023-07-13T02:06:07;95806.34;;;17.99;87.77
29247;BME280;16272;48.188;9.964;2023-07-13T02:08:33;95809.63;;;17.95;87.76
29247;BME280;16272;48.188;9.964;2023-07-13T02:10:59;95813.03;;;18.10;86.35
29247;BME280;16272;48.188;9.964;2023-07-13T02:13:24;95816.66;;;17.96;86.65
29247;BME280;16272;48.188;9.964;2023-07-13T02:15:51;95812.06;;;17.90;87.63
29247;BME280;16272;48.188;9.964;2023-07-13T02:18:16;95807.91;;;17.87;89.63
29247;BME280;16272;48.188;9.964;2023-07-13T02:20:42;95805.13;;;18.02;87.89
29247;BME280;16272;48.188;9.964;2023-07-13T02:23:07;95807.22;;;18.13;87.14
29247;BME280;16272;48.188;9.964;2023-07-13T02:25:33;95807.44;;;17.83;88.81
29247;BME280;16272;48.188;9.964;2023-07-13T02:27:58;95803.72;;;17.78;89.09
29247;BME280;16272;48.188;9.964;2023-07-13T02:30:23;95803.22;;;17.68;89.01
29247;BME280;16272;48.188;9.964;2023-07-13T02:32:50;95797.09;;;17.80;88.51
29247;BME280;16272;48.188;9.964;2023-07-13T02:35:15;95798.69;;;17.68;89.32
29247;BME280;16272;48.188;9.964;2023-07-13T02:37:40;95791.84;;;17.66;88.78
29247;BME280;16272;48.188;9.964;2023-07-13T02:40:06;95796.78;;;17.62;87.89
29247;BME280;16272;48.188;9.964;2023-07-13T02:42:34;95790.78;;;17.60;87.46
29247;BME280;16272;48.188;9.964;2023-07-13T02:44:59;95789.56;;;17.69;85.93
29247;BME280;16272;48.188;9.964;2023-07-13T02:47:24;95787.66;;;17.56;85.99
29247;BME280;16272;48.188;9.964;2023-07-13T02:49:50;95790.59;;;17.33;87.96
29247;BME280;16272;48.188;9.964;2023-07-13T02:52:15;95794.13;;;17.40;87.22
29247;BME280;16272;48.188;9.964;2023-07-13T02:54:41;95791.72;;;17.24;86.54
29247;BME280;16272;48.188;9.964;2023-07-13T02:57:06;95796.06;;;17.03;87.17
29247;BME280;16272;48.188;9.964;2023-07-13T02:59:32;95802.47;;;17.02;87.32
29247;BME280;16272;48.188;9.964;2023-07-13T03:01:57;95810.91;;;16.99;87.58
29247;BME280;16272;48.188;9.964;2023-07-13T03:04:22;95811.66;;;16.93;88.42
29247;BME280;16272;48.188;9.964;2023-07-13T03:06:48;95816.78;;;17.09;86.71
29247;BME280;16272;48.188;9.964;2023-07-13T03:09:13;95808.97;;;17.15;87.11
29247;BME280;16272;48.188;9.964;2023-07-13T03:11:38;95817.00;;;17.36;86.61
29247;BME280;16272;48.188;9.964;2023-07-13T03:14:04;95822.00;;;17.39;84.61
29247;BME280;16272;48.188;9.964;2023-07-13T03:16:29;95822.59;;;17.13;86.31
29247;BME280;16272;48.188;9.964;2023-07-13T03:18:54;95834.28;;;17.49;84.57
29247;BME280;16272;48.188;9.964;2023-07-13T03:21:20;95830.63;;;17.35;85.85
29247;BME280;16272;48.188;9.964;2023-07-13T03:23:46;95828.34;;;17.10;86.52
29247;BME280;16272;48.188;9.964;2023-07-13T03:26:16;95836.31;;;17.03;87.49
29247;BME280;16272;48.188;9.964;2023-07-13T03:28:43;95836.56;;;17.08;87.36
29247;BME280;16272;48.188;9.964;2023-07-13T03:31:27;95841.31;;;17.06;86.74
29247;BME280;16272;48.188;9.964;2023-07-13T03:33:53;95843.25;;;17.13;86.14
29247;BME280;16272;48.188;9.964;2023-07-13T03:36:22;95841.94;;;17.08;86.53
29247;BME280;16272;48.188;9.964;2023-07-13T03:38:51;95847.38;;;16.79;88.52
29247;BME280;16272;48.188;9.964;2023-07-13T03:41:17;95847.91;;;17.04;87.69
29247;BME280;16272;48.188;9.964;2023-07-13T03:43:42;95850.13;;;17.00;88.88
29247;BME280;16272;48.188;9.964;2023-07-13T03:46:08;95846.09;;;17.11;86.69
29247;BME280;16272;48.188;9.964;2023-07-13T03:48:33;95847.53;;;17.07;87.58
29247;BME280;16272;48.188;9.964;2023-07-13T03:50:59;95856.59;;;17.06;87.96
29247;BME280;16272;48.188;9.964;2023-07-13T03:53:24;95854.59;;;17.15;87.60
29247;BME280;16272;48.188;9.964;2023-07-13T03:55:49;95854.59;;;17.15;87.84
29247;BME280;16272;48.188;9.964;2023-07-13T03:58:29;95857.03;;;17.31;86.27
29247;BME280;16272;48.188;9.964;2023-07-13T04:00:56;95851.84;;;17.08;87.33
29247;BME280;16272;48.188;9.964;2023-07-13T04:03:22;95857.53;;;17.20;87.06
29247;BME280;16272;48.188;9.964;2023-07-13T04:05:48;95858.56;;;17.19;86.85
29247;BME280;16272;48.188;9.964;2023-07-13T04:08:14;95856.09;;;17.17;87.82
29247;BME280;16272;48.188;9.964;2023-07-13T04:10:39;95858.03;;;17.08;88.60
29247;BME280;16272;48.188;9.964;2023-07-13T04:13:05;95861.91;;;17.21;87.66
29247;BME280;16272;48.188;9.964;2023-07-13T04:15:31;95871.13;;;17.33;86.51
29247;BME280;16272;48.188;9.964;2023-07-13T04:17:57;95874.38;;;17.29;87.47
29247;BME280;16272;48.188;9.964;2023-07-13T04:20:23;95872.31;;;17.31;87.89
29247;BME280;16272;48.188;9.964;2023-07-13T04:22:49;95871.16;;;17.40;87.09
29247;BME280;16272;48.188;9.964;2023-07-13T04:25:15;95878.00;;;17.21;86.13
29247;BME280;16272;48.188;9.964;2023-07-13T04:27:40;95894.84;;;17.15;87.85
29247;BME280;16272;48.188;9.964;2023-07-13T04:30:06;95894.41;;;17.11;86.54
29247;BME280;16272;48.188;9.964;2023-07-13T04:32:32;95893.41;;;17.12;86.25
29247;BME280;16272;48.188;9.964;2023-07-13T04:34:58;95887.69;;;17.00;87.45
29247;BME280;16272;48.188;9.964;2023-07-13T04:37:27;95893.47;;;17.19;86.46
29247;BME280;16272;48.188;9.964;2023-07-13T04:39:52;95886.81;;;17.36;85.43
29247;BME280;16272;48.188;9.964;2023-07-13T04:42:18;95879.91;;;17.27;86.51
29247;BME280;16272;48.188;9.964;2023-07-13T04:44:51;95888.84;;;17.34;86.18
29247;BME280;16272;48.188;9.964;2023-07-13T04:47:17;95887.44;;;17.60;83.49
29247;BME280;16272;48.188;9.964;2023-07-13T04:49:42;95899.66;;;17.41;85.21
29247;BME280;16272;48.188;9.964;2023-07-13T04:52:08;95896.72;;;17.36;86.69
29247;BME280;16272;48.188;9.964;2023-07-13T04:54:34;95895.28;;;17.33;87.28
29247;BME280;16272;48.188;9.964;2023-07-13T04:57:00;95888.34;;;17.24;87.29
29247;BME280;16272;48.188;9.964;2023-07-13T04:59:26;95887.97;;;17.27;86.80
29247;BME280;16272;48.188;9.964;2023-07-13T05:01:52;95900.22;;;17.36;86.54
29247;BME280;16272;48.188;9.964;2023-07-13T05:04:17;95909.06;;;17.30;86.95
29247;BME280;16272;48.188;9.964;2023-07-13T05:06:42;95901.03;;;17.30;86.85
29247;BME280;16272;48.188;9.964;2023-07-13T05:09:08;95917.38;;;17.35;87.14
29247;BME280;16272;48.188;9.964;2023-07-13T05:11:34;95923.19;;;17.39;87.26
29247;BME280;16272;48.188;9.964;2023-07-13T05:13:59;95919.09;;;17.43;86.88
29247;BME280;16272;48.188;9.964;2023-07-13T05:16:26;95922.75;;;17.57;86.00
29247;BME280;16272;48.188;9.964;2023-07-13T05:18:51;95920.13;;;17.63;85.52
29247;BME280;16272;48.188;9.964;2023-07-13T05:21:17;95929.66;;;17.66;85.21
29247;BME280;16272;48.188;9.964;2023-07-13T05:23:42;95922.97;;;17.83;85.16
29247;BME280;16272;48.188;9.964;2023-07-13T05:26:07;95920.41;;;17.97;85.89
29247;BME280;16272;48.188;9.964;2023-07-13T05:28:33;95919.16;;;17.93;85.21
29247;BME280;16272;48.188;9.964;2023-07-13T05:30:58;95928.63;;;17.89;85.48
29247;BME280;16272;48.188;9.964;2023-07-13T05:33:24;95930.41;;;17.81;85.87
29247;BME280;16272;48.188;9.964;2023-07-13T05:35:50;95925.28;;;17.87;86.08
29247;BME280;16272;48.188;9.964;2023-07-13T05:38:16;95933.16;;;17.88;85.88
29247;BME280;16272;48.188;9.964;2023-07-13T05:40:45;95936.16;;;17.78;85.50
29247;BME280;16272;48.188;9.964;2023-07-13T05:43:11;95932.22;;;17.74;84.33
29247;BME280;16272;48.188;9.964;2023-07-13T05:45:37;95935.66;;;17.90;83.77
29247;BME280;16272;48.188;9.964;2023-07-13T05:48:02;95928.34;;;18.05;81.90
29247;BME280;16272;48.188;9.964;2023-07-13T05:50:28;95935.91;;;18.23;84.11
29247;BME280;16272;48.188;9.964;2023-07-13T05:52:53;95937.38;;;18.26;82.53
29247;BME280;16272;48.188;9.964;2023-07-13T05:55:19;95941.91;;;18.53;82.28
29247;BME280;16272;48.188;9.964;2023-07-13T05:57:45;95936.72;;;18.87;82.63
29247;BME280;16272;48.188;9.964;2023-07-13T06:00:11;95941.56;;;18.70;81.15
29247;BME280;16272;48.188;9.964;2023-07-13T06:02:37;95949.53;;;18.85;78.77
29247;BME280;16272;48.188;9.964;2023-07-13T06:05:03;95946.66;;;18.86;79.51
29247;BME280;16272;48.188;9.964;2023-07-13T06:07:28;95949.81;;;18.97;79.77
29247;BME280;16272;48.188;9.964;2023-07-13T06:09:54;95945.97;;;19.26;78.46
29247;BME280;16272;48.188;9.964;2023-07-13T06:12:19;95941.44;;;19.33;76.93
29247;BME280;16272;48.188;9.964;2023-07-13T06:14:44;95949.38;;;19.61;79.65
29247;BME280;16272;48.188;9.964;2023-07-13T06:17:09;95951.09;;;19.82;76.79
29247;BME280;16272;48.188;9.964;2023-07-13T06:19:35;95951.94;;;19.83;73.52
29247;BME280;16272;48.188;9.964;2023-07-13T06:22:00;95952.13;;;20.28;78.08
29247;BME280;16272;48.188;9.964;2023-07-13T06:24:26;95957.75;;;20.33;75.59
29247;BME280;16272;48.188;9.964;2023-07-13T06:26:51;95964.34;;;20.51;75.38
29247;BME280;16272;48.188;9.964;2023-07-13T06:29:16;95961.88;;;20.02;70.64
29247;BME280;16272;48.188;9.964;2023-07-13T06:31:42;95968.09;;;19.76;75.54
29247;BME280;16272;48.188;9.964;2023-07-13T06:34:07;95965.41;;;19.76;71.60
29247;BME280;16272;48.188;9.964;2023-07-13T06:36:33;95961.78;;;19.49;78.26
29247;BME280;16272;48.188;9.964;2023-07-13T06:38:58;95968.88;;;19.70;74.41
29247;BME280;16272;48.188;9.964;2023-07-13T06:41:23;95978.06;;;20.02;72.33
29247;BME280;16272;48.188;9.964;2023-07-13T06:43:51;95980.34;;;20.12;71.18
29247;BME280;16272;48.188;9.964;2023-07-13T06:46:16;95982.13;;;19.72;73.12
29247;BME280;16272;48.188;9.964;2023-07-13T06:48:42;95983.06;;;20.12;74.50
29247;BME280;16272;48.188;9.964;2023-07-13T06:51:08;95981.34;;;19.78;72.97
29247;BME280;16272;48.188;9.964;2023-07-13T06:53:33;95978.69;;;19.98;74.99
29247;BME280;16272;48.188;9.964;2023-07-13T06:55:58;95982.53;;;19.69;64.94
29247;BME280;16272;48.188;9.964;2023-07-13T06:58:24;95982.75;;;19.74;64.78
29247;BME280;16272;48.188;9.964;2023-07-13T07:00:52;95984.19;;;19.56;68.77
29247;BME280;16272;48.188;9.964;2023-07-13T07:03:17;95994.63;;;19.24;70.11
29247;BME280;16272;48.188;9.964;2023-07-13T07:05:43;96000.97;;;19.52;71.29
29247;BME280;16272;48.188;9.964;2023-07-13T07:08:08;95986.50;;;19.73;72.28
29247;BME280;16272;48.188;9.964;2023-07-13T07:10:34;95985.84;;;19.71;69.37
29247;BME280;16272;48.188;9.964;2023-07-13T07:12:59;95989.66;;;19.96;68.31
29247;BME280;16272;48.188;9.964;2023-07-13T07:15:25;95987.63;;;20.25;69.07
29247;BME280;16272;48.188;9.964;2023-07-13T07:17:52;95989.25;;;19.99;69.15
29247;BME280;16272;48.188;9.964;2023-07-13T07:20:17;95992.97;;;19.98;68.18
29247;BME280;16272;48.188;9.964;2023-07-13T07:22:42;95988.44;;;20.26;72.91
29247;BME280;16272;48.188;9.964;2023-07-13T07:25:08;95991.75;;;20.34;70.60
29247;BME280;16272;48.188;9.964;2023-07-13T07:27:33;95992.78;;;20.20;69.93
29247;BME280;16272;48.188;9.964;2023-07-13T07:29:59;95994.63;;;20.39;67.65
29247;BME280;16272;48.188;9.964;2023-07-13T07:32:24;95989.03;;;20.61;68.13
29247;BME280;16272;48.188;9.964;2023-07-13T07:34:50;96000.28;;;20.45;63.33
29247;BME280;16272;48.188;9.964;2023-07-13T07:37:15;96000.03;;;20.13;61.33
29247;BME280;16272;48.188;9.964;2023-07-13T07:39:42;96002.13;;;20.24;68.81
29247;BME280;16272;48.188;9.964;2023-07-13T07:42:08;96005.03;;;20.43;70.24
29247;BME280;16272;48.188;9.964;2023-07-13T07:44:33;96008.78;;;20.35;63.84
29247;BME280;16272;48.188;9.964;2023-07-13T07:47:00;96006.47;;;20.45;66.94
29247;BME280;16272;48.188;9.964;2023-07-13T07:49:25;96012.09;;;20.44;67.90
29247;BME280;16272;48.188;9.964;2023-07-13T07:51:51;96004.19;;;20.42;66.40
29247;BME280;16272;48.188;9.964;2023-07-13T07:54:17;96009.19;;;20.45;66.24
29247;BME280;16272;48.188;9.964;2023-07-13T07:56:42;96017.06;;;20.60;68.01
29247;BME280;16272;48.188;9.964;2023-07-13T07:59:08;96010.00;;;20.86;68.46
29247;BME280;16272;48.188;9.964;2023-07-13T08:01:34;96007.53;;;20.78;65.76
29247;BME280;16272;48.188;9.964;2023-07-13T08:03:59;96011.03;;;20.78;63.42
29247;BME280;16272;48.188;9.964;2023-07-13T08:06:24;96020.78;;;20.72;63.33
29247;BME280;16272;48.188;9.964;2023-07-13T08:08:50;96012.25;;;20.89;62.45
29247;BME280;16272;48.188;9.964;2023-07-13T08:11:16;96008.75;;;20.68;61.27
29247;BME280;16272;48.188;9.964;2023-07-13T08:13:41;96010.38;;;20.89;60.08
29247;BME280;16272;48.188;9.964;2023-07-13T08:16:07;96015.38;;;20.92;61.34
29247;BME280;16272;48.188;9.964;2023-07-13T08:18:32;96014.84;;;21.29;60.83
29247;BME280;16272;48.188;9.964;2023-07-13T08:20:58;96022.44;;;21.52;60.19
29247;BME280;16272;48.188;9.964;2023-07-13T08:23:24;96020.59;;;21.39;54.21
29247;BME280;16272;48.188;9.964;2023-07-13T08:25:52;96019.53;;;21.54;59.10
29247;BME280;16272;48.188;9.964;2023-07-13T08:28:18;96020.56;;;21.53;60.23
29247;BME280;16272;48.188;9.964;2023-07-13T08:30:43;96028.19;;;21.10;57.76
29247;BME280;16272;48.188;9.964;2023-07-13T08:33:09;96020.78;;;20.86;56.13
29247;BME280;16272;48.188;9.964;2023-07-13T08:35:34;96026.00;;;20.67;57.74
29247;BME280;16272;48.188;9.964;2023-07-13T08:37:59;96031.78;;;20.84;57.59
29247;BME280;16272;48.188;9.964;2023-07-13T08:40:27;96033.06;;;20.68;59.40
29247;BME280;16272;48.188;9.964;2023-07-13T08:42:59;96032.00;;;20.43;58.61
29247;BME280;16272;48.188;9.964;2023-07-13T08:45:43;96023.47;;;20.72;62.91
29247;BME280;16272;48.188;9.964;2023-07-13T08:48:41;96031.41;;;21.39;63.11
29247;BME280;16272;48.188;9.964;2023-07-13T08:51:19;96035.09;;;20.93;59.61
29247;BME280;16272;48.188;9.964;2023-07-13T08:53:52;96029.28;;;20.96;61.82
29247;BME280;16272;48.188;9.964;2023-07-13T08:56:25;96033.16;;;21.20;61.27
29247;BME280;16272;48.188;9.964;2023-07-13T08:58:56;96030.91;;;20.97;62.26
29247;BME280;16272;48.188;9.964;2023-07-13T09:01:31;96023.84;;;21.68;62.32
29247;BME280;16272;48.188;9.964;2023-07-13T09:09:39;96021.94;;;22.07;61.48
29247;BME280;16272;48.188;9.964;2023-07-13T09:12:20;96023.66;;;22.27;53.88
29247;BME280;16272;48.188;9.964;2023-07-13T09:14:52;96029.88;;;22.34;56.33
29247;BME280;16272;48.188;9.964;2023-07-13T09:17:22;96029.25;;;22.82;58.61
29247;BME280;16272;48.188;9.964;2023-07-13T09:22:50;96028.06;;;22.21;57.21
29247;BME280;16272;48.188;9.964;2023-07-13T09:25:30;96019.25;;;22.57;55.70
29247;BME280;16272;48.188;9.964;2023-07-13T09:28:00;96018.34;;;21.81;55.75
29247;BME280;16272;48.188;9.964;2023-07-13T09:30:35;96023.19;;;22.05;54.69
29247;BME280;16272;48.188;9.964;2023-07-13T09:33:03;96022.91;;;22.45;57.12
29247;BME280;16272;48.188;9.964;2023-07-13T09:35:30;96036.06;;;22.09;55.37
29247;BME280;16272;48.188;9.964;2023-07-13T09:38:09;96018.09;;;22.72;53.70
29247;BME280;16272;48.188;9.964;2023-07-13T09:40:38;96014.31;;;22.23;52.57
29247;BME280;16272;48.188;9.964;2023-07-13T09:43:07;96018.34;;;22.45;53.26
29247;BME280;16272;48.188;9.964;2023-07-13T09:45:36;96016.13;;;22.35;55.65
29247;BME280;16272;48.188;9.964;2023-07-13T09:48:12;96025.28;;;23.03;55.69
29247;BME280;16272;48.188;9.964;2023-07-13T09:50:42;96031.00;;;22.19;52.59
29247;BME280;16272;48.188;9.964;2023-07-13T09:53:15;96020.25;;;23.07;54.56
29247;BME280;16272;48.188;9.964;2023-07-13T09:55:43;96026.88;;;23.48;52.76
29247;BME280;16272;48.188;9.964;2023-07-13T09:58:18;96035.31;;;23.40;51.39
29247;BME280;16272;48.188;9.964;2023-07-13T10:01:00;96028.56;;;23.12;52.58
29247;BME280;16272;48.188;9.964;2023-07-13T10:03:30;96024.78;;;23.31;48.91
29247;BME280;16272;48.188;9.964;2023-07-13T10:06:12;96029.03;;;23.09;44.60
29247;BME280;16272;48.188;9.964;2023-07-13T10:08:38;96024.16;;;23.66;52.46
29247;BME280;16272;48.188;9.964;2023-07-13T10:11:18;96029.13;;;24.30;48.82
29247;BME280;16272;48.188;9.964;2023-07-13T10:13:55;96017.72;;;24.87;50.64
29247;BME280;16272;48.188;9.964;2023-07-13T10:16:23;96020.00;;;24.13;47.32
29247;BME280;16272;48.188;9.964;2023-07-13T10:18:53;96024.81;;;24.11;50.24
29247;BME280;16272;48.188;9.964;2023-07-13T10:21:22;96027.91;;;23.84;50.06
29247;BME280;16272;48.188;9.964;2023-07-13T10:23:55;96032.16;;;23.24;51.33
29247;BME280;16272;48.188;9.964;2023-07-13T10:26:31;96039.03;;;23.76;51.95
29247;BME280;16272;48.188;9.964;2023-07-13T10:29:02;96036.19;;;23.89;51.17
29247;BME280;16272;48.188;9.964;2023-07-13T10:31:30;96032.22;;;23.36;52.81
29247;BME280;16272;48.188;9.964;2023-07-13T10:33:56;96024.78;;;23.13;43.61
29247;BME280;16272;48.188;9.964;2023-07-13T10:36:37;96022.91;;;23.13;45.72
29247;BME280;16272;48.188;9.964;2023-07-13T10:39:04;96019.88;;;23.03;40.70
29247;BME280;16272;48.188;9.964;2023-07-13T10:41:34;96018.19;;;23.09;41.59
29247;BME280;16272;48.188;9.964;2023-07-13T10:44:00;96020.78;;;24.01;49.01
29247;BME280;16272;48.188;9.964;2023-07-13T10:46:27;96024.00;;;24.88;45.21
29247;BME280;16272;48.188;9.964;2023-07-13T10:49:13;96025.13;;;24.45;43.85
29247;BME280;16272;48.188;9.964;2023-07-13T10:51:39;96018.78;;;23.11;43.42
29247;BME280;16272;48.188;9.964;2023-07-13T10:56:42;96018.03;;;23.90;47.36
29247;BME280;16272;48.188;9.964;2023-07-13T11:04:40;96003.50;;;26.14;42.80
29247;BME280;16272;48.188;9.964;2023-07-13T11:07:18;96002.63;;;25.96;45.61
29247;BME280;16272;48.188;9.964;2023-07-13T11:09:49;96012.44;;;24.57;46.49
29247;BME280;16272;48.188;9.964;2023-07-13T11:19:53;96007.50;;;25.54;43.29
29247;BME280;16272;48.188;9.964;2023-07-13T11:22:24;95997.06;;;26.37;43.61
29247;BME280;16272;48.188;9.964;2023-07-13T11:25:06;95997.66;;;26.22;42.50
29247;BME280;16272;48.188;9.964;2023-07-13T11:27:49;96007.53;;;25.18;42.85
29247;BME280;16272;48.188;9.964;2023-07-13T11:30:25;96001.16;;;25.36;42.71
29247;BME280;16272;48.188;9.964;2023-07-13T11:38:34;95994.72;;;26.12;41.33
29247;BME280;16272;48.188;9.964;2023-07-13T11:41:05;95989.13;;;26.18;43.33
29247;BME280;16272;48.188;9.964;2023-07-13T11:43:31;95991.94;;;25.78;41.47
29247;BME280;16272;48.188;9.964;2023-07-13T11:46:12;95994.50;;;25.84;45.17
29247;BME280;16272;48.188;9.964;2023-07-13T11:48:37;95990.47;;;26.33;43.92
29247;BME280;16272;48.188;9.964;2023-07-13T11:51:04;95993.00;;;25.94;44.52
29247;BME280;16272;48.188;9.964;2023-07-13T11:53:45;95990.16;;;26.00;43.81
29247;BME280;16272;48.188;9.964;2023-07-13T11:56:12;95977.66;;;26.16;43.36
29247;BME280;16272;48.188;9.964;2023-07-13T11:58:38;95987.34;;;26.75;45.23
29247;BME280;16272;48.188;9.964;2023-07-13T12:01:03;95986.06;;;26.15;42.95
29247;BME280;16272;48.188;9.964;2023-07-13T12:03:33;95990.03;;;25.95;46.28
29247;BME280;16272;48.188;9.964;2023-07-13T12:06:05;95979.34;;;24.84;43.87
29247;BME280;16272;48.188;9.964;2023-07-13T12:08:39;95979.69;;;24.52;44.09
29247;BME280;16272;48.188;9.964;2023-07-13T12:11:16;95984.50;;;25.21;43.74
29247;BME280;16272;48.188;9.964;2023-07-13T12:13:43;95986.78;;;25.00;44.72
29247;BME280;16272;48.188;9.964;2023-07-13T12:16:45;95968.88;;;25.97;46.64
29247;BME280;16272;48.188;9.964;2023-07-13T12:21:43;95969.03;;;25.62;43.78
29247;BME280;16272;48.188;9.964;2023-07-13T12:24:16;95958.78;;;26.10;44.17
29247;BME280;16272;48.188;9.964;2023-07-13T12:26:43;95965.94;;;25.70;41.74
29247;BME280;16272;48.188;9.964;2023-07-13T12:29:15;95964.47;;;26.08;43.52
29247;BME280;16272;48.188;9.964;2023-07-13T12:31:43;95957.88;;;26.72;43.72
29247;BME280;16272;48.188;9.964;2023-07-13T12:34:22;95955.81;;;26.28;44.40
29247;BME280;16272;48.188;9.964;2023-07-13T12:36:52;95954.41;;;26.99;45.17
29247;BME280;16272;48.188;9.964;2023-07-13T12:41:44;95951.84;;;27.09;44.52
29247;BME280;16272;48.188;9.964;2023-07-13T12:44:39;95957.44;;;27.41;42.18
29247;BME280;16272;48.188;9.964;2023-07-13T12:47:09;95954.63;;;27.85;40.34
29247;BME280;16272;48.188;9.964;2023-07-13T12:49:41;95955.16;;;26.21;40.54
29247;BME280;16272;48.188;9.964;2023-07-13T12:52:22;95953.47;;;26.71;40.44
29247;BME280;16272;48.188;9.964;2023-07-13T12:55:03;95946.06;;;27.27;37.92
29247;BME280;16272;48.188;9.964;2023-07-13T12:57:29;95952.66;;;26.36;43.18
29247;BME280;16272;48.188;9.964;2023-07-13T12:59:54;95942.28;;;26.16;44.78
29247;BME280;16272;48.188;9.964;2023-07-13T13:02:32;95944.06;;;26.78;41.57
29247;BME280;16272;48.188;9.964;2023-07-13T13:04:59;95938.94;;;26.82;40.61
29247;BME280;16272;48.188;9.964;2023-07-13T13:07:25;95938.00;;;26.93;42.83
29247;BME280;16272;48.188;9.964;2023-07-13T13:09:51;95936.75;;;26.28;44.51
29247;BME280;16272;48.188;9.964;2023-07-13T13:12:19;95942.78;;;26.64;43.71
29247;BME280;16272;48.188;9.964;2023-07-13T13:14:45;95939.91;;;27.15;41.83
29247;BME280;16272;48.188;9.964;2023-07-13T13:17:19;95942.91;;;26.57;44.04
29247;BME280;16272;48.188;9.964;2023-07-13T13:19:46;95948.78;;;26.49;42.73
29247;BME280;16272;48.188;9.964;2023-07-13T13:22:11;95944.06;;;26.78;44.38
29247;BME280;16272;48.188;9.964;2023-07-13T13:24:37;95941.28;;;26.95;42.88
29247;BME280;16272;48.188;9.964;2023-07-13T13:27:03;95941.22;;;26.17;43.23
29247;BME280;16272;48.188;9.964;2023-07-13T13:29:28;95940.72;;;25.46;43.13
29247;BME280;16272;48.188;9.964;2023-07-13T13:31:56;95944.59;;;25.79;43.50
29247;BME280;16272;48.188;9.964;2023-07-13T13:34:23;95936.66;;;26.06;42.97
29247;BME280;16272;48.188;9.964;2023-07-13T13:36:49;95927.41;;;26.41;41.00
29247;BME280;16272;48.188;9.964;2023-07-13T13:39:23;95924.97;;;26.22;43.78
29247;BME280;16272;48.188;9.964;2023-07-13T13:41:51;95927.06;;;26.54;45.04